createdAt,value
2022-11-14T00:19:36.011Z,100827.63
2022-11-14T00:22:22.308Z,100832.81
2022-11-14T00:25:08.738Z,100830.19
2022-11-14T00:27:58.112Z,100835.38
2022-11-14T00:30:49.052Z,100825.81
2022-11-14T00:33:35.207Z,100822.31
2022-11-14T00:36:20.986Z,100820.59
2022-11-14T00:39:06.984Z,100824.13
2022-11-14T00:41:53.847Z,100814.56
2022-11-14T00:44:39.449Z,100824.22
2022-11-14T00:47:25.357Z,100824.22
2022-11-14T00:50:11.546Z,100819.03
2022-11-14T00:52:57.270Z,100822.56
2022-11-14T00:55:43.809Z,100819.09
2022-11-14T00:58:30.197Z,100825.22
2022-11-14T01:01:16.160Z,100826.09
2022-11-14T01:04:02.707Z,100831.34
2022-11-14T01:06:48.412Z,100827.88
2022-11-14T01:09:34.239Z,100833.13
2022-11-14T01:12:20.390Z,100829.66
2022-11-14T01:15:06.631Z,100827.94
2022-11-14T01:17:52.375Z,100835.81
2022-11-14T01:20:43.469Z,100826.22
2022-11-14T01:23:29.113Z,100828.84
2022-11-14T01:26:15.429Z,100829.72
2022-11-14T01:29:01.375Z,100835.84
2022-11-14T01:31:47.397Z,100830.63
2022-11-14T01:34:33.468Z,100839.34
2022-11-14T01:37:19.338Z,100834.13
2022-11-14T01:40:05.867Z,100833.25
2022-11-14T01:43:16.834Z,100825.41
2022-11-14T01:46:20.762Z,100828.03
2022-11-14T01:49:12.035Z,100835.00
2022-11-14T01:52:20.870Z,100838.50
2022-11-14T01:55:09.568Z,100831.50
2022-11-14T01:57:57.901Z,100834.13
2022-11-14T02:00:44.607Z,100835.88
2022-11-14T02:03:30.457Z,100837.59
2022-11-14T02:06:20.145Z,100831.50
2022-11-14T02:09:07.355Z,100833.25
2022-11-14T02:11:55.169Z,100838.50
2022-11-14T02:14:45.522Z,100839.34
2022-11-14T02:17:32.693Z,100838.47
2022-11-14T02:20:28.849Z,100841.06
2022-11-14T02:23:15.090Z,100842.81
2022-11-14T02:26:00.556Z,100837.56
2022-11-14T02:28:46.929Z,100846.28
2022-11-14T02:31:33.248Z,100836.66
2022-11-14T02:34:20.406Z,100841.03
2022-11-14T02:37:07.076Z,100834.06
2022-11-14T02:39:52.697Z,100836.66
2022-11-14T02:42:38.485Z,100830.53
2022-11-14T02:45:24.488Z,100834.03
2022-11-14T02:48:10.095Z,100840.13
2022-11-14T02:50:55.394Z,100842.75
2022-11-14T02:53:41.024Z,100847.13
2022-11-14T02:56:26.465Z,100852.38
2022-11-14T02:59:12.037Z,100847.13
2022-11-14T03:01:57.416Z,100832.28
2022-11-14T03:04:43.488Z,100832.28
2022-11-14T03:07:29.740Z,100834.91
2022-11-14T03:10:15.835Z,100824.44
2022-11-14T03:13:02.230Z,100829.69
2022-11-14T03:15:48.322Z,100837.56
2022-11-14T03:18:34.752Z,100836.66
2022-11-14T03:21:22.837Z,100841.03
2022-11-14T03:24:08.833Z,100840.16
2022-11-14T03:26:55.101Z,100839.28
2022-11-14T03:29:40.926Z,100841.03
2022-11-14T03:32:27.380Z,100844.50
2022-11-14T03:35:13.611Z,100854.09
2022-11-14T03:37:59.376Z,100856.69
2022-11-14T03:40:45.820Z,100861.94
2022-11-14T03:43:34.214Z,100848.84
2022-11-14T03:46:20.463Z,100847.09
2022-11-14T03:49:06.997Z,100854.94
2022-11-14T03:51:52.883Z,100851.44
2022-11-14T03:54:39.010Z,100845.31
2022-11-14T03:57:24.908Z,100840.06
2022-11-14T04:00:12.138Z,100847.91
2022-11-14T04:02:58.405Z,100847.00
2022-11-14T04:05:47.222Z,100850.47
2022-11-14T04:08:33.301Z,100839.13
2022-11-14T04:11:20.404Z,100843.44
2022-11-14T04:14:06.125Z,100846.91
2022-11-14T04:16:51.948Z,100853.84
2022-11-14T04:19:37.902Z,100860.81
2022-11-14T04:22:23.495Z,100860.78
2022-11-14T04:25:10.022Z,100858.16
2022-11-14T04:27:55.939Z,100863.34
2022-11-14T04:30:42.865Z,100862.47
2022-11-14T04:33:29.057Z,100865.09
2022-11-14T04:36:14.713Z,100861.63
2022-11-14T04:39:01.280Z,100867.75
2022-11-14T04:41:47.497Z,100859.03
2022-11-14T04:44:33.662Z,100863.41
2022-11-14T04:47:19.852Z,100864.31
2022-11-14T04:50:06.433Z,100866.06
2022-11-14T04:52:53.777Z,100859.09
2022-11-14T04:55:39.713Z,100866.94
2022-11-14T04:58:25.847Z,100866.94
2022-11-14T05:01:13.993Z,100873.91
2022-11-14T05:04:00.152Z,100874.75
2022-11-14T05:06:46.529Z,100884.31
2022-11-14T05:09:32.562Z,100887.75
2022-11-14T05:12:17.981Z,100878.19
2022-11-14T05:15:03.952Z,100886.88
2022-11-14T05:17:50.350Z,100890.31
2022-11-14T05:20:36.490Z,100887.69
2022-11-14T05:23:23.769Z,100892.06
2022-11-14T05:26:12.574Z,100895.53
2022-11-14T05:28:58.493Z,100889.44
2022-11-14T05:31:44.389Z,100894.69
2022-11-14T05:34:30.372Z,100894.69
2022-11-14T05:37:16.539Z,100896.47
2022-11-14T05:40:03.140Z,100904.31
2022-11-14T05:42:49.332Z,100901.69
2022-11-14T05:45:34.948Z,100893.00
2022-11-14T05:48:20.778Z,100896.50
2022-11-14T05:51:08.585Z,100898.28
2022-11-14T05:53:55.856Z,100893.91
2022-11-14T05:56:41.868Z,100900.03
2022-11-14T05:59:28.083Z,100907.91
2022-11-14T06:02:14.607Z,100910.56
2022-11-14T06:05:00.762Z,100902.75
2022-11-14T06:07:46.931Z,100901.03
2022-11-14T06:10:34.670Z,100901.94
2022-11-14T06:13:20.957Z,100905.50
2022-11-14T06:16:12.893Z,100898.56
2022-11-14T06:18:58.689Z,100903.78
2022-11-14T06:21:44.593Z,100908.22
2022-11-14T06:24:31.380Z,100911.75
2022-11-14T06:27:17.269Z,100909.19
2022-11-14T06:30:03.589Z,100910.09
2022-11-14T06:32:49.178Z,100905.75
2022-11-14T06:35:35.615Z,100908.34
2022-11-14T06:38:22.065Z,100909.28
2022-11-14T06:41:15.010Z,100907.53
2022-11-14T06:44:00.388Z,100917.13
2022-11-14T06:46:46.525Z,100920.63
2022-11-14T06:49:36.584Z,100918.03
2022-11-14T06:52:26.984Z,100915.38
2022-11-14T06:55:12.712Z,100917.97
2022-11-14T06:58:01.118Z,100917.06
2022-11-14T07:00:47.298Z,100919.66
2022-11-14T07:03:33.961Z,100917.00
2022-11-14T07:06:23.295Z,100919.53
2022-11-14T07:09:11.409Z,100923.81
2022-11-14T07:11:57.947Z,100917.56
2022-11-14T07:14:43.787Z,100922.75
2022-11-14T07:17:31.380Z,100927.81
2022-11-14T07:20:18.852Z,100922.38
2022-11-14T07:23:04.852Z,100918.63
2022-11-14T07:25:50.757Z,100921.84
2022-11-14T07:28:41.373Z,100915.50
2022-11-14T07:31:26.851Z,100921.44
2022-11-14T07:34:13.138Z,100916.88
2022-11-14T07:36:59.554Z,100918.47
2022-11-14T07:39:46.361Z,100925.22
2022-11-14T07:42:32.667Z,100918.91
2022-11-14T07:45:20.291Z,100910.66
2022-11-14T07:48:06.547Z,100913.97
2022-11-14T07:50:52.540Z,100912.00
2022-11-14T07:53:38.476Z,100910.28
2022-11-14T07:56:26.445Z,100918.91
2022-11-14T07:59:12.474Z,100907.97
2022-11-14T08:01:58.492Z,100907.59
2022-11-14T08:04:44.332Z,100905.63
2022-11-14T08:07:30.312Z,100905.47
2022-11-14T08:10:16.531Z,100903.69
2022-11-14T08:16:14.185Z,100907.69
2022-11-14T08:19:00.531Z,100906.75
2022-11-14T08:37:02.068Z,100903.75
2022-11-14T08:39:48.172Z,100899.38
2022-11-14T08:42:35.621Z,100899.34
2022-11-14T08:45:21.711Z,100894.06
2022-11-14T08:48:08.141Z,100902.81
2022-11-14T08:50:54.430Z,100895.44
2022-11-14T08:53:40.246Z,100895.28
2022-11-14T08:56:25.865Z,100888.09
2022-11-14T08:59:11.793Z,100886.31
2022-11-14T09:01:57.708Z,100880.03
2022-11-14T09:04:43.881Z,100885.03
2022-11-14T09:07:29.618Z,100879.81
2022-11-14T09:10:16.254Z,100884.00
2022-11-14T09:13:03.146Z,100879.94
2022-11-14T09:15:48.929Z,100882.13
2022-11-14T09:18:34.880Z,100881.09
2022-11-14T09:21:21.187Z,100880.31
2022-11-14T09:24:07.371Z,100876.94
2022-11-14T09:26:56.637Z,100879.63
2022-11-14T09:29:43.101Z,100881.47
2022-11-14T09:32:29.267Z,100871.94
2022-11-14T09:35:15.319Z,100871.28
2022-11-14T09:38:06.771Z,100874.25
2022-11-14T09:41:10.196Z,100873.66
2022-11-14T09:44:07.126Z,100869.25
2022-11-14T09:47:03.946Z,100870.38
2022-11-14T09:49:54.366Z,100878.25
2022-11-14T09:52:49.802Z,100871.25
2022-11-14T09:55:37.381Z,100869.84
2022-11-14T09:58:23.900Z,100867.47
2022-11-14T10:01:26.110Z,100863.59
2022-11-14T10:04:42.516Z,100858.31
2022-11-14T10:07:52.135Z,100870.91
2022-11-14T10:11:13.233Z,100864.72
2022-11-14T10:14:17.684Z,100852.59
2022-11-14T10:17:09.295Z,100848.09
2022-11-14T10:20:09.619Z,100851.59
2022-11-14T10:23:36.662Z,100844.41
2022-11-14T10:26:31.014Z,100843.47
2022-11-14T10:29:50.918Z,100848.06
2022-11-14T10:32:51.453Z,100850.75
2022-11-14T10:35:42.803Z,100848.84
2022-11-14T10:38:44.187Z,100845.63
2022-11-14T10:41:57.072Z,100845.97
2022-11-14T10:44:42.834Z,100845.19
2022-11-14T10:47:37.580Z,100847.41
2022-11-14T10:50:28.979Z,100832.84
2022-11-14T10:53:29.318Z,100847.31
2022-11-14T10:56:15.348Z,100846.22
2022-11-14T10:59:01.413Z,100841.66
2022-11-14T11:01:57.833Z,100839.78
2022-11-14T11:04:45.530Z,100839.75
2022-11-14T11:07:50.021Z,100842.59
2022-11-14T11:11:01.582Z,100834.56
2022-11-14T11:14:00.247Z,100835.34
2022-11-14T11:16:48.279Z,100834.47
2022-11-14T11:19:33.940Z,100840.84
2022-11-14T11:22:39.613Z,100834.59
2022-11-14T11:25:28.418Z,100832.72
2022-11-14T11:28:22.531Z,100835.41
2022-11-14T11:31:11.378Z,100833.41
2022-11-14T11:34:04.265Z,100827.66
2022-11-14T11:37:12.570Z,100833.06
2022-11-14T11:40:05.615Z,100819.97
2022-11-14T11:43:37.185Z,100825.31
2022-11-14T11:46:23.469Z,100825.31
2022-11-14T11:49:29.785Z,100825.34
2022-11-14T11:52:28.863Z,100823.75
2022-11-14T11:55:36.801Z,100816.06
2022-11-14T11:58:37.775Z,100808.25
2022-11-14T12:01:24.506Z,100817.25
2022-11-14T12:04:10.709Z,100814.34
2022-11-14T12:07:08.796Z,100809.03
2022-11-14T12:10:11.560Z,100803.91
2022-11-14T12:13:06.520Z,100804.13
2022-11-14T12:16:08.817Z,100799.97
2022-11-14T12:19:32.048Z,100795.81
2022-11-14T12:22:42.403Z,100805.72
2022-11-14T12:26:03.043Z,100799.63
2022-11-14T12:28:59.636Z,100803.31
2022-11-14T12:31:47.511Z,100799.91
2022-11-14T12:34:39.103Z,100796.69
2022-11-14T12:37:38.626Z,100793.19
2022-11-14T12:40:25.888Z,100795.44
2022-11-14T12:43:43.122Z,100799.16
2022-11-14T12:47:08.023Z,100802.91
2022-11-14T12:49:54.261Z,100791.63
2022-11-14T12:52:55.033Z,100786.44
2022-11-14T12:55:45.673Z,100789.13
2022-11-14T12:59:06.315Z,100791.91
2022-11-14T13:01:52.708Z,100785.84
2022-11-14T13:04:56.677Z,100789.31
2022-11-14T13:08:03.567Z,100792.88
2022-11-14T13:10:49.450Z,100784.91
2022-11-14T13:14:18.980Z,100785.81
2022-11-14T13:17:35.949Z,100782.41
2022-11-14T13:20:50.052Z,100787.78
2022-11-14T13:23:41.686Z,100790.66
2022-11-14T13:26:31.029Z,100782.81
2022-11-14T13:29:41.425Z,100785.53
2022-11-14T13:32:43.457Z,100786.53
2022-11-14T13:35:50.358Z,100794.56
2022-11-14T13:39:07.704Z,100792.94
2022-11-14T13:42:42.347Z,100792.16
2022-11-14T13:45:31.066Z,100789.66
2022-11-14T13:48:28.461Z,100790.59
2022-11-14T13:51:41.611Z,100788.06
2022-11-14T13:54:23.488Z,100789.06
2022-11-14T13:57:26.247Z,100787.44
2022-11-14T14:00:20.035Z,100788.47
2022-11-14T14:03:22.690Z,100795.50
2022-11-14T14:06:08.349Z,100785.91
2022-11-14T14:09:15.553Z,100786.84
2022-11-14T14:12:19.766Z,100785.19
2022-11-14T14:15:21.063Z,100793.97
2022-11-14T18:23:53.392Z,100710.66
2022-11-14T18:26:39.453Z,100714.09
2022-11-14T18:29:24.946Z,100718.44
2022-11-14T18:32:10.496Z,100714.03
2022-11-14T18:34:58.426Z,100704.38
2022-11-14T18:37:43.812Z,100709.56
2022-11-14T18:40:29.364Z,100717.38
2022-11-14T18:43:16.324Z,100710.34
2022-11-14T18:46:24.704Z,100707.66
2022-11-14T18:49:11.403Z,100706.78
2022-11-14T18:51:57.237Z,100705.00
2022-11-14T18:54:43.172Z,100710.22
2022-11-14T18:57:28.604Z,100704.97
2022-11-14T19:00:15.446Z,100703.22
2022-11-14T19:03:05.928Z,100695.28
2022-11-14T19:05:52.638Z,100697.88
2022-11-14T19:08:39.910Z,100696.16
2022-11-14T19:11:44.206Z,100684.75
2022-11-14T19:14:30.576Z,100691.75
2022-11-14T19:17:21.157Z,100699.66
2022-11-14T19:20:14.002Z,100698.81
2022-11-14T19:23:00.305Z,100701.44
2022-11-14T19:25:46.070Z,100700.53
2022-11-14T19:28:32.286Z,100699.75
2022-11-14T19:31:19.096Z,100696.31
2022-11-14T19:34:05.775Z,100705.00
2022-11-14T19:37:00.043Z,100697.13
2022-11-14T19:39:46.629Z,100694.47
2022-11-14T19:42:32.089Z,100701.47
2022-11-14T19:45:17.872Z,100698.84
2022-11-14T19:48:05.727Z,100704.94
2022-11-14T19:51:01.615Z,100707.59
2022-11-14T19:53:47.620Z,100719.84
2022-11-14T19:56:33.214Z,100715.47
2022-11-14T19:59:23.973Z,100713.75
2022-11-14T20:02:13.545Z,100702.34
2022-11-14T20:04:59.490Z,100691.88
2022-11-14T20:07:45.550Z,100683.97
2022-11-14T20:10:31.495Z,100689.22
2022-11-14T20:13:17.422Z,100697.16
2022-11-14T20:16:28.056Z,100699.06
2022-11-14T20:19:14.284Z,100691.13
2022-11-14T20:22:00.200Z,100701.56
2022-11-14T20:24:45.624Z,100693.69
2022-11-14T20:27:31.203Z,100697.19
2022-11-14T20:30:16.893Z,100702.41
2022-11-14T20:33:02.523Z,100693.66
2022-11-14T20:35:48.392Z,100698.03
2022-11-14T20:38:34.446Z,100696.25
2022-11-14T20:41:21.664Z,100687.50
2022-11-14T20:44:07.545Z,100690.13
2022-11-14T20:46:55.540Z,100680.47
2022-11-14T20:49:42.551Z,100682.19
2022-11-14T20:52:28.407Z,100669.94
2022-11-14T20:55:15.758Z,100683.09
2022-11-14T20:58:01.165Z,100678.69
2022-11-14T21:00:48.965Z,100687.41
2022-11-14T21:03:35.383Z,100679.53
2022-11-14T21:06:20.888Z,100684.78
2022-11-14T21:09:06.503Z,100683.03
2022-11-14T21:11:51.990Z,100684.75
2022-11-14T21:14:37.676Z,100677.78
2022-11-14T21:17:23.536Z,100673.38
2022-11-14T21:20:09.817Z,100670.75
2022-11-14T21:22:55.135Z,100669.88
2022-11-14T21:25:40.684Z,100667.25
2022-11-14T21:28:28.816Z,100655.88
2022-11-14T21:31:35.042Z,100662.03
2022-11-14T21:34:20.716Z,100658.53
2022-11-14T21:37:06.279Z,100651.53
2022-11-14T21:39:52.130Z,100652.41
2022-11-14T21:42:39.887Z,100652.41
2022-11-14T21:45:25.336Z,100648.03
2022-11-14T21:48:11.145Z,100649.84
2022-11-14T21:51:03.547Z,100642.00
2022-11-14T21:53:54.044Z,100638.50
2022-11-14T21:56:39.688Z,100640.28
2022-11-14T21:59:27.726Z,100634.13
2022-11-14T22:02:31.845Z,100631.59
2022-11-14T22:05:17.442Z,100635.91
2022-11-14T22:08:02.848Z,100619.31
2022-11-14T22:10:48.250Z,100616.84
2022-11-14T22:13:33.805Z,100626.47
2022-11-14T22:16:19.788Z,100625.59
2022-11-14T22:19:06.044Z,100609.88
2022-11-14T22:21:51.605Z,100606.34
2022-11-14T22:24:37.211Z,100603.72
2022-11-14T22:27:22.573Z,100598.50
2022-11-14T22:30:08.961Z,100593.31
2022-11-14T22:32:54.636Z,100597.78
2022-11-14T22:35:40.120Z,100595.25
2022-11-14T22:38:28.924Z,100604.94
2022-11-14T22:41:17.758Z,100603.13
2022-11-14T22:44:03.251Z,100604.84
2022-11-14T22:46:48.761Z,100592.56
2022-11-14T22:49:34.272Z,100605.66
2022-11-14T22:52:19.821Z,100583.75
2022-11-14T22:55:05.737Z,100582.81
2022-11-14T22:57:51.073Z,100578.44
2022-11-14T23:00:36.951Z,100561.78
2022-11-14T23:03:23.272Z,100559.22
2022-11-14T23:06:11.088Z,100551.31
2022-11-14T23:08:57.007Z,100547.81
2022-11-14T23:11:42.594Z,100541.72
2022-11-14T23:14:28.020Z,100554.84
2022-11-14T23:17:13.453Z,100544.38
2022-11-14T23:19:58.757Z,100540.06
2022-11-14T23:22:44.465Z,100536.47
2022-11-14T23:25:30.378Z,100527.75
2022-11-14T23:28:16.004Z,100522.53
2022-11-14T23:31:02.157Z,100530.41
2022-11-14T23:33:49.041Z,100529.47
2022-11-14T23:36:34.744Z,100519.88
2022-11-14T23:39:20.147Z,100520.78
2022-11-14T23:42:05.897Z,100525.97
2022-11-14T23:44:51.207Z,100523.38
2022-11-14T23:47:36.751Z,100516.41
2022-11-14T23:50:22.620Z,100518.13
2022-11-14T23:53:08.529Z,100522.50
2022-11-14T23:55:55.486Z,100517.22
2022-11-14T23:58:41.891Z,100511.09
